createdAt,value
2022-09-26T00:00:49.033Z,11.43158
2022-09-26T00:01:57.759Z,11.44165
2022-09-26T00:03:06.344Z,11.43158
2022-09-26T00:04:16.057Z,11.44165
2022-09-26T00:05:25.691Z,11.44165
2022-09-26T00:06:34.332Z,11.44165
2022-09-26T00:07:44.025Z,11.451721
2022-09-26T00:08:53.749Z,11.451721
2022-09-26T00:10:03.404Z,11.451721
2022-09-26T00:11:12.068Z,11.471863
2022-09-26T00:12:19.729Z,11.471863
2022-09-26T00:13:29.423Z,11.471863
2022-09-26T00:14:38.104Z,11.471863
2022-09-26T00:15:47.764Z,11.471863
2022-09-26T00:16:57.559Z,11.451721
2022-09-26T00:18:06.167Z,11.451721
2022-09-26T00:19:15.818Z,11.451721
2022-09-26T00:20:24.524Z,11.471863
2022-09-26T00:21:34.204Z,11.471863
2022-09-26T00:22:43.930Z,11.481934
2022-09-26T00:23:53.667Z,11.451721
2022-09-26T00:25:01.333Z,11.471863
2022-09-26T00:26:11.060Z,11.471863
2022-09-26T00:27:19.838Z,11.481934
2022-09-26T00:28:27.546Z,11.481934
2022-09-26T00:29:37.264Z,11.481934
2022-09-26T00:30:46.002Z,11.481934
2022-09-26T00:31:55.922Z,11.502075
2022-09-26T00:33:05.533Z,11.481934
2022-09-26T00:34:14.169Z,11.502075
2022-09-26T00:35:23.836Z,11.502075
2022-09-26T00:36:37.841Z,11.502075
2022-09-26T00:37:41.208Z,11.502075
2022-09-26T00:38:50.882Z,11.512146
2022-09-26T00:39:58.587Z,11.512146
2022-09-26T00:41:07.242Z,11.512146
2022-09-26T00:42:16.912Z,11.502075
2022-09-26T00:43:24.597Z,11.481934
2022-09-26T00:44:34.249Z,11.502075
2022-09-26T00:45:43.072Z,11.481934
2022-09-26T00:46:51.691Z,11.502075
2022-09-26T00:48:01.357Z,11.502075
2022-09-26T00:49:09.043Z,11.502075
2022-09-26T00:50:17.764Z,11.481934
2022-09-26T00:51:27.359Z,11.471863
2022-09-26T00:52:35.012Z,11.502075
2022-09-26T00:53:44.648Z,11.481934
2022-09-26T00:54:54.425Z,11.481934
2022-09-26T00:56:02.081Z,11.481934
2022-09-26T00:57:11.745Z,11.502075
2022-09-26T00:58:19.420Z,11.471863
2022-09-26T00:59:29.067Z,11.502075
2022-09-26T01:00:42.077Z,11.481934
2022-09-26T01:01:47.463Z,11.481934
2022-09-26T01:02:57.060Z,11.481934
2022-09-26T01:04:06.744Z,11.481934
2022-09-26T01:05:14.387Z,11.481934
2022-09-26T01:06:24.090Z,11.481934
2022-09-26T01:07:31.784Z,11.481934
2022-09-26T01:08:40.429Z,11.481934
2022-09-26T01:09:50.125Z,11.481934
2022-09-26T01:10:58.827Z,11.471863
2022-09-26T01:12:08.538Z,11.471863
2022-09-26T01:13:18.182Z,11.481934
2022-09-26T01:14:25.832Z,11.481934
2022-09-26T01:15:35.514Z,11.481934
2022-09-26T01:16:43.211Z,11.481934
2022-09-26T01:17:52.830Z,11.502075
2022-09-26T01:19:02.565Z,11.481934
2022-09-26T01:20:10.244Z,11.502075
2022-09-26T01:21:19.916Z,11.502075
2022-09-26T01:22:28.607Z,11.481934
2022-09-26T01:23:37.299Z,11.502075
2022-09-26T01:24:46.981Z,11.471863
2022-09-26T01:25:55.669Z,11.471863
2022-09-26T01:27:04.318Z,11.471863
2022-09-26T01:28:14.093Z,11.471863
2022-09-26T01:29:21.675Z,11.471863
2022-09-26T01:30:31.365Z,11.451721
2022-09-26T01:31:40.017Z,11.451721
2022-09-26T01:32:48.741Z,11.451721
2022-09-26T01:33:58.381Z,11.44165
2022-09-26T01:35:06.169Z,11.451721
2022-09-26T01:36:14.826Z,11.451721
2022-09-26T01:37:23.497Z,11.43158
2022-09-26T01:38:32.166Z,11.44165
2022-09-26T01:39:41.809Z,11.43158
2022-09-26T01:40:50.643Z,11.44165
2022-09-26T01:41:58.246Z,11.44165
2022-09-26T01:43:07.921Z,11.44165
2022-09-26T01:44:15.623Z,11.44165
2022-09-26T01:45:24.259Z,11.44165
2022-09-26T01:46:32.978Z,11.44165
2022-09-26T01:47:41.648Z,11.44165
2022-09-26T01:48:51.379Z,11.43158
2022-09-26T01:50:00.032Z,11.43158
2022-09-26T01:51:08.697Z,11.44165
2022-09-26T01:52:18.442Z,11.44165
2022-09-26T01:53:27.110Z,11.43158
2022-09-26T01:54:35.744Z,11.411438
2022-09-26T01:55:45.415Z,11.401367
2022-09-26T01:56:53.062Z,11.401367
2022-09-26T01:58:02.815Z,11.361084
2022-09-26T01:59:11.514Z,11.361084
2022-09-26T02:00:19.192Z,11.351013
2022-09-26T02:01:28.913Z,11.371155
2022-09-26T02:02:37.531Z,11.351013
2022-09-26T02:03:46.165Z,11.351013
2022-09-26T02:04:55.849Z,11.320801
2022-09-26T02:06:03.520Z,11.320801
2022-09-26T02:07:13.207Z,11.320801
2022-09-26T02:08:21.871Z,11.320801
2022-09-26T02:09:30.587Z,11.320801
2022-09-26T02:10:40.269Z,11.330872
2022-09-26T02:11:47.928Z,11.300659
2022-09-26T02:12:56.592Z,11.320801
2022-09-26T02:14:05.243Z,11.330872
2022-09-26T02:15:14.935Z,11.330872
2022-09-26T02:16:23.725Z,11.320801
2022-09-26T02:17:32.482Z,11.330872
2022-09-26T02:18:42.173Z,11.320801
2022-09-26T02:19:50.834Z,11.351013
2022-09-26T02:21:00.514Z,11.330872
2022-09-26T02:22:10.216Z,11.330872
2022-09-26T02:23:18.900Z,11.330872
2022-09-26T02:24:28.574Z,11.330872
2022-09-26T02:25:37.267Z,11.330872
2022-09-26T02:26:46.943Z,11.330872
2022-09-26T02:27:55.626Z,11.351013
2022-09-26T02:29:03.274Z,11.351013
2022-09-26T02:30:11.937Z,11.320801
2022-09-26T02:31:21.675Z,11.330872
2022-09-26T02:32:29.353Z,11.320801
2022-09-26T02:33:38.998Z,11.320801
2022-09-26T02:34:47.677Z,11.300659
2022-09-26T02:35:54.387Z,11.330872
2022-09-26T02:37:04.067Z,11.320801
2022-09-26T02:38:12.813Z,11.320801
2022-09-26T02:39:22.485Z,11.320801
2022-09-26T02:40:32.173Z,11.320801
2022-09-26T02:41:40.804Z,11.320801
2022-09-26T02:42:50.493Z,11.330872
2022-09-26T02:43:59.214Z,11.330872
2022-09-26T02:45:06.925Z,11.320801
2022-09-26T02:46:16.665Z,11.300659
2022-09-26T02:47:25.268Z,11.320801
2022-09-26T02:48:34.942Z,11.320801
2022-09-26T02:49:44.629Z,11.320801
2022-09-26T02:50:52.297Z,11.320801
2022-09-26T02:52:01.985Z,11.320801
2022-09-26T02:53:11.665Z,11.320801
2022-09-26T02:54:21.331Z,11.300659
2022-09-26T02:55:30.077Z,11.270447
2022-09-26T02:56:39.772Z,11.320801
2022-09-26T02:57:49.478Z,11.300659
2022-09-26T02:58:59.141Z,11.320801
2022-09-26T03:00:07.803Z,11.290588
2022-09-26T03:01:15.575Z,11.300659
2022-09-26T03:02:25.187Z,11.290588
2022-09-26T03:03:32.929Z,11.300659
2022-09-26T03:04:42.739Z,11.290588
2022-09-26T03:05:52.244Z,11.290588
2022-09-26T03:06:59.932Z,11.260376
2022-09-26T03:08:09.593Z,11.260376
2022-09-26T03:09:18.257Z,11.250305
2022-09-26T03:10:27.922Z,11.250305
2022-09-26T03:11:37.626Z,11.250305
2022-09-26T03:12:45.335Z,11.250305
2022-09-26T03:13:55.036Z,11.250305
2022-09-26T03:15:03.709Z,11.250305
2022-09-26T03:16:13.440Z,11.260376
2022-09-26T03:17:23.115Z,11.260376
2022-09-26T03:18:30.860Z,11.230164
2022-09-26T03:19:40.567Z,11.250305
2022-09-26T03:20:48.339Z,11.230164
2022-09-26T03:21:57.883Z,11.230164
2022-09-26T03:23:07.647Z,11.220093
2022-09-26T03:24:16.338Z,11.17981
2022-09-26T03:25:26.036Z,11.169739
2022-09-26T03:26:34.708Z,11.169739
2022-09-26T03:27:42.357Z,11.149597
2022-09-26T03:28:52.021Z,11.17981
2022-09-26T03:29:59.712Z,11.17981
2022-09-26T03:31:08.405Z,11.169739
2022-09-26T03:32:18.094Z,11.169739
2022-09-26T03:33:25.765Z,11.17981
2022-09-26T03:34:35.435Z,11.169739
2022-09-26T03:35:44.127Z,11.17981
2022-09-26T03:36:51.811Z,11.17981
2022-09-26T03:38:01.487Z,11.17981
2022-09-26T03:39:12.170Z,11.169739
2022-09-26T03:40:20.807Z,11.17981
2022-09-26T03:41:30.482Z,11.169739
2022-09-26T03:42:38.383Z,11.17981
2022-09-26T03:43:48.076Z,11.149597
2022-09-26T03:44:56.711Z,11.169739
2022-09-26T03:46:04.455Z,11.169739
2022-09-26T03:47:14.089Z,11.139526
2022-09-26T03:48:21.789Z,11.169739
2022-09-26T03:49:30.474Z,11.149597
2022-09-26T03:50:40.147Z,11.149597
2022-09-26T03:51:48.811Z,11.169739
2022-09-26T03:52:58.509Z,11.169739
2022-09-26T03:54:08.172Z,11.17981
2022-09-26T03:55:15.836Z,11.169739
2022-09-26T03:56:25.493Z,11.169739
2022-09-26T03:57:33.166Z,11.17981
2022-09-26T03:58:42.813Z,11.18988
2022-09-26T03:59:52.470Z,11.169739
2022-09-26T04:01:02.260Z,11.17981
2022-09-26T04:02:11.849Z,11.17981
2022-09-26T04:03:21.504Z,11.169739
2022-09-26T04:04:30.200Z,11.169739
2022-09-26T04:05:39.921Z,11.17981
2022-09-26T04:06:48.586Z,11.17981
2022-09-26T04:07:57.241Z,11.17981
2022-09-26T04:09:07.010Z,11.17981
2022-09-26T04:10:17.603Z,11.17981
2022-09-26T04:11:27.288Z,11.169739
2022-09-26T04:12:35.953Z,11.169739
2022-09-26T04:13:52.727Z,11.17981
2022-09-26T04:14:54.377Z,11.169739
2022-09-26T04:16:02.133Z,11.169739
2022-09-26T04:17:10.729Z,11.169739
2022-09-26T04:18:20.440Z,11.139526
2022-09-26T04:19:29.127Z,11.149597
2022-09-26T04:20:38.816Z,11.139526
2022-09-26T04:21:47.516Z,11.139526
2022-09-26T04:22:56.245Z,11.169739
2022-09-26T04:24:05.928Z,11.149597
2022-09-26T04:25:14.693Z,11.149597
2022-09-26T04:26:24.701Z,11.169739
2022-09-26T04:27:33.954Z,11.149597
2022-09-26T04:28:41.611Z,11.169739
2022-09-26T04:29:51.287Z,11.149597
2022-09-26T04:31:00.957Z,11.139526
2022-09-26T04:32:08.613Z,11.139526
2022-09-26T04:33:18.298Z,11.149597
2022-09-26T04:34:27.383Z,11.149597
2022-09-26T04:35:34.662Z,11.139526
2022-09-26T04:36:44.361Z,11.119385
2022-09-26T04:37:53.049Z,11.139526
2022-09-26T04:39:02.756Z,11.149597
2022-09-26T04:40:12.560Z,11.149597
2022-09-26T04:41:20.307Z,11.139526
2022-09-26T04:42:29.875Z,11.149597
2022-09-26T04:43:38.587Z,11.139526
2022-09-26T04:44:47.391Z,11.149597
2022-09-26T04:45:57.096Z,11.139526
2022-09-26T04:47:06.220Z,11.149597
2022-09-26T04:48:15.971Z,11.139526
2022-09-26T04:49:25.632Z,11.149597
2022-09-26T04:50:33.326Z,11.149597
2022-09-26T04:51:41.996Z,11.169739
2022-09-26T04:52:51.670Z,11.139526
2022-09-26T04:54:00.370Z,11.149597
2022-09-26T04:55:10.049Z,11.149597
2022-09-26T04:56:19.751Z,11.169739
2022-09-26T04:57:27.487Z,11.149597
2022-09-26T04:58:36.141Z,11.169739
2022-09-26T04:59:44.868Z,11.139526
2022-09-26T05:00:54.562Z,11.149597
2022-09-26T05:02:04.309Z,11.149597
2022-09-26T05:03:13.998Z,11.139526
2022-09-26T05:04:27.395Z,11.119385
2022-09-26T05:05:33.490Z,11.119385
2022-09-26T05:06:42.226Z,11.109314
2022-09-26T05:07:52.011Z,11.139526
2022-09-26T05:08:59.684Z,11.119385
2022-09-26T05:10:09.387Z,11.119385
2022-09-26T05:11:19.047Z,11.109314
2022-09-26T05:12:26.787Z,11.109314
2022-09-26T05:13:36.542Z,11.079102
2022-09-26T05:14:46.247Z,11.079102
2022-09-26T05:15:54.950Z,11.099243
2022-09-26T05:17:04.711Z,11.079102
2022-09-26T05:18:13.395Z,11.079102
2022-09-26T05:19:22.128Z,11.099243
2022-09-26T05:20:31.926Z,11.079102
2022-09-26T05:21:39.595Z,11.109314
2022-09-26T05:22:49.263Z,11.079102
2022-09-26T05:23:58.000Z,11.099243
2022-09-26T05:25:06.710Z,11.079102
2022-09-26T05:26:16.394Z,11.099243
2022-09-26T05:27:25.113Z,11.079102
2022-09-26T05:28:34.923Z,11.079102
2022-09-26T05:29:44.607Z,11.079102
2022-09-26T05:30:53.272Z,11.099243
2022-09-26T05:32:03.139Z,11.099243
2022-09-26T05:33:11.781Z,11.099243
2022-09-26T05:34:20.386Z,11.099243
2022-09-26T05:35:29.217Z,11.079102
2022-09-26T05:36:38.021Z,11.079102
2022-09-26T05:37:46.728Z,11.099243
2022-09-26T05:38:56.452Z,11.079102
2022-09-26T05:40:06.186Z,11.069031
2022-09-26T05:41:15.903Z,11.079102
2022-09-26T05:42:24.645Z,11.069031
2022-09-26T05:43:33.331Z,11.079102
2022-09-26T05:44:43.061Z,11.099243
2022-09-26T05:45:51.854Z,11.109314
2022-09-26T05:47:00.592Z,11.099243
2022-09-26T05:48:10.383Z,11.099243
2022-09-26T05:49:18.113Z,11.099243
2022-09-26T05:50:27.815Z,11.079102
2022-09-26T05:51:38.512Z,11.109314
2022-09-26T05:52:47.234Z,11.099243
2022-09-26T05:53:56.966Z,11.109314
2022-09-26T05:55:05.703Z,11.099243
2022-09-26T05:56:18.679Z,11.109314
2022-09-26T05:57:25.093Z,11.119385
2022-09-26T05:58:34.030Z,11.119385
2022-09-26T05:59:43.769Z,11.119385
2022-09-26T06:00:52.543Z,11.119385
2022-09-26T06:02:01.395Z,11.119385
2022-09-26T06:03:11.251Z,11.119385
2022-09-26T06:04:19.002Z,11.119385
2022-09-26T06:05:27.721Z,11.149597
2022-09-26T06:06:37.551Z,11.149597
2022-09-26T06:07:46.300Z,11.17981
2022-09-26T06:08:56.043Z,11.169739
2022-09-26T06:10:04.811Z,11.18988
2022-09-26T06:11:14.576Z,11.220093
2022-09-26T06:12:24.408Z,11.18988
2022-09-26T06:13:33.266Z,11.18988
2022-09-26T06:14:42.009Z,11.220093
2022-09-26T06:15:51.763Z,11.220093
2022-09-26T06:16:59.508Z,11.220093
2022-09-26T06:18:09.298Z,11.18988
2022-09-26T06:19:22.754Z,11.18988
2022-09-26T06:20:28.756Z,11.169739
2022-09-26T06:21:38.524Z,11.17981
2022-09-26T06:22:46.374Z,11.149597
2022-09-26T06:23:55.039Z,11.169739
2022-09-26T06:25:04.828Z,11.17981
2022-09-26T06:26:12.674Z,11.18988
2022-09-26T06:27:22.377Z,11.220093
2022-09-26T06:28:32.120Z,11.250305
2022-09-26T06:29:41.867Z,11.220093
2022-09-26T06:30:51.601Z,11.220093
2022-09-26T06:32:01.382Z,11.260376
2022-09-26T06:33:11.093Z,11.290588
2022-09-26T06:34:20.779Z,11.320801
2022-09-26T06:35:29.573Z,11.351013
2022-09-26T06:36:39.272Z,11.371155
2022-09-26T06:37:48.998Z,11.361084
2022-09-26T06:38:56.748Z,11.371155
2022-09-26T06:40:06.677Z,11.371155
2022-09-26T06:41:14.473Z,11.361084
2022-09-26T06:42:23.323Z,11.43158
2022-09-26T06:43:33.114Z,11.44165
2022-09-26T06:44:41.984Z,11.44165
2022-09-26T06:45:51.853Z,11.451721
2022-09-26T06:47:00.647Z,11.471863
2022-09-26T06:48:09.330Z,11.44165
2022-09-26T06:49:18.163Z,11.43158
2022-09-26T06:50:27.855Z,11.411438
2022-09-26T06:51:36.611Z,11.43158
2022-09-26T06:52:45.478Z,11.43158
2022-09-26T06:53:55.212Z,11.451721
2022-09-26T06:55:03.919Z,11.471863
2022-09-26T06:56:13.698Z,11.512146
2022-09-26T06:57:23.443Z,11.512146
2022-09-26T06:58:32.174Z,11.552429
2022-09-26T06:59:41.845Z,11.552429
2022-09-26T07:00:51.673Z,11.592712
2022-09-26T07:02:01.489Z,11.552429
2022-09-26T07:03:11.192Z,11.552429
2022-09-26T07:04:18.926Z,11.512146
2022-09-26T07:05:28.694Z,11.502075
2022-09-26T07:06:37.358Z,11.481934
2022-09-26T07:07:46.073Z,11.502075
2022-09-26T07:09:05.595Z,11.522217
2022-09-26T07:10:06.471Z,11.522217
2022-09-26T07:11:34.957Z,11.542358
2022-09-26T07:12:26.899Z,11.512146
2022-09-26T07:13:35.601Z,11.471863
2022-09-26T07:14:47.978Z,11.471863
2022-09-26T07:15:55.086Z,11.44165
2022-09-26T07:17:04.738Z,11.44165
2022-09-26T07:18:14.444Z,11.451721
2022-09-26T07:19:24.192Z,11.471863
2022-09-26T07:20:34.007Z,11.481934
2022-09-26T07:21:43.677Z,11.481934
2022-09-26T07:22:51.381Z,11.481934
2022-09-26T07:24:01.098Z,11.522217
2022-09-26T07:25:08.843Z,11.542358
2022-09-26T07:26:17.660Z,11.572571
2022-09-26T07:27:27.390Z,11.572571
2022-09-26T07:28:36.113Z,11.592712
2022-09-26T07:29:45.796Z,11.572571
2022-09-26T07:30:55.527Z,11.602783
2022-09-26T07:32:03.264Z,11.602783
2022-09-26T07:33:12.942Z,11.632996
2022-09-26T07:34:21.729Z,11.653137
2022-09-26T07:35:30.465Z,11.632996
2022-09-26T07:36:40.209Z,11.592712
2022-09-26T07:37:50.000Z,11.552429
2022-09-26T07:38:59.675Z,11.572571
2022-09-26T07:40:08.535Z,11.622925
2022-09-26T07:41:18.325Z,11.622925
2022-09-26T07:42:28.235Z,11.632996
2022-09-26T07:44:19.092Z,11.653137
2022-09-26T07:45:20.787Z,11.69342
2022-09-26T07:45:57.312Z,11.69342
2022-09-26T07:47:05.151Z,11.723633
2022-09-26T07:48:14.864Z,11.723633
2022-09-26T07:49:23.644Z,11.733704
2022-09-26T07:50:31.374Z,11.703491
2022-09-26T07:51:41.066Z,11.733704
2022-09-26T07:52:48.909Z,11.733704
2022-09-26T07:53:57.654Z,11.804199
2022-09-26T07:55:07.468Z,11.81427
2022-09-26T07:56:16.258Z,11.784058
2022-09-26T07:57:26.002Z,11.753845
2022-09-26T07:58:35.776Z,11.804199
2022-09-26T07:59:43.520Z,11.733704
2022-09-26T08:00:53.442Z,11.804199
2022-09-26T08:02:02.292Z,11.773987
2022-09-26T08:03:11.882Z,11.773987
2022-09-26T08:04:21.640Z,11.81427
2022-09-26T08:05:30.360Z,11.914978
2022-09-26T08:06:40.097Z,12.035828
2022-09-26T08:07:48.989Z,12.096252
2022-09-26T08:08:56.776Z,12.176819
2022-09-26T08:10:06.465Z,12.247314
2022-09-26T08:11:14.213Z,12.348022
2022-09-26T08:12:22.981Z,12.398376
2022-09-26T08:13:32.721Z,12.44873
2022-09-26T08:14:41.427Z,12.358093
2022-09-26T08:15:51.191Z,12.247314
2022-09-26T08:17:00.824Z,12.237244
2022-09-26T08:18:11.607Z,12.086182
2022-09-26T08:19:21.340Z,12.126465
2022-09-26T08:20:32.292Z,12.126465
2022-09-26T08:21:39.889Z,12.19696
2022-09-26T08:22:48.660Z,12.19696
2022-09-26T08:23:58.382Z,12.19696
2022-09-26T08:25:08.098Z,12.287598
2022-09-26T08:26:17.924Z,12.277527
2022-09-26T08:27:26.625Z,12.19696
2022-09-26T08:28:36.359Z,12.207031
2022-09-26T08:29:45.103Z,12.247314
2022-09-26T08:30:54.887Z,12.207031
2022-09-26T08:32:04.570Z,12.217102
2022-09-26T08:33:13.432Z,12.247314
2022-09-26T08:34:25.479Z,12.388306
2022-09-26T08:35:32.815Z,12.529297
2022-09-26T08:36:40.484Z,12.760925
2022-09-26T08:37:50.286Z,13.113403
2022-09-26T08:38:58.999Z,13.123474
2022-09-26T08:40:07.720Z,13.093262
2022-09-26T08:41:17.576Z,13.032837
2022-09-26T08:42:26.139Z,13.012695
2022-09-26T08:43:35.823Z,12.911987
2022-09-26T08:44:44.516Z,12.9422
2022-09-26T08:45:54.234Z,13.012695
2022-09-26T08:47:04.135Z,13.123474
2022-09-26T08:48:13.806Z,13.234253
2022-09-26T08:49:21.482Z,13.284607
2022-09-26T08:50:30.211Z,13.345032
2022-09-26T08:51:38.921Z,13.385315
2022-09-26T08:52:48.654Z,13.334961
2022-09-26T08:53:57.373Z,13.274536
2022-09-26T08:55:05.051Z,13.375244
2022-09-26T08:56:13.786Z,13.375244
2022-09-26T08:57:23.582Z,13.667297
2022-09-26T08:58:31.360Z,13.94928
2022-09-26T08:59:41.129Z,14.291687
2022-09-26T09:00:49.835Z,14.33197
2022-09-26T09:01:59.721Z,14.33197
2022-09-26T09:03:09.270Z,14.100342
2022-09-26T09:04:18.927Z,14.049988
2022-09-26T09:05:28.659Z,14.261475
2022-09-26T09:06:38.362Z,14.402466
2022-09-26T09:07:48.106Z,14.603882
2022-09-26T09:08:57.835Z,14.855652
2022-09-26T09:10:07.521Z,14.785156
2022-09-26T09:11:15.260Z,14.684448
2022-09-26T09:12:27.084Z,14.83551
2022-09-26T09:13:34.695Z,14.805298
2022-09-26T09:14:44.378Z,14.906006
2022-09-26T09:15:55.136Z,15.097351
2022-09-26T09:17:02.789Z,15.490112
2022-09-26T09:18:13.717Z,15.641174
2022-09-26T09:19:22.157Z,15.389404
2022-09-26T09:20:29.848Z,15.067139
2022-09-26T09:21:41.913Z,14.875793
2022-09-26T09:22:48.312Z,14.996643
2022-09-26T09:23:58.018Z,15.238342
2022-09-26T09:25:07.705Z,15.137634
2022-09-26T09:28:36.759Z,14.70459
2022-09-26T09:29:49.126Z,14.603882
2022-09-26T09:30:55.251Z,14.593811
2022-09-26T09:32:02.932Z,14.352112
2022-09-26T09:33:11.660Z,14.261475
2022-09-26T09:34:21.314Z,14.0802
2022-09-26T09:35:30.055Z,14.029846
2022-09-26T09:36:39.864Z,13.919067
2022-09-26T09:37:49.595Z,13.989563
2022-09-26T09:38:58.322Z,14.049988
2022-09-26T09:40:08.022Z,14.110413
2022-09-26T09:41:15.738Z,14.029846
2022-09-26T09:42:24.478Z,13.989563
2022-09-26T09:43:34.216Z,14.140625
2022-09-26T09:44:46.339Z,14.33197
2022-09-26T09:45:52.637Z,14.483032
2022-09-26T09:47:02.368Z,14.483032
2022-09-26T09:48:11.073Z,14.58374
2022-09-26T09:49:20.744Z,14.603882
2022-09-26T09:50:28.703Z,14.734802
2022-09-26T09:51:39.401Z,14.805298
2022-09-26T09:52:47.086Z,14.785156
2022-09-26T09:53:54.776Z,14.724731
2022-09-26T09:55:04.579Z,14.734802
2022-09-26T09:56:13.326Z,14.724731
2022-09-26T09:57:22.987Z,14.593811
2022-09-26T09:58:32.766Z,14.694519
2022-09-26T09:59:41.506Z,14.684448
2022-09-26T10:00:51.264Z,14.624023
2022-09-26T10:02:00.139Z,14.734802
2022-09-26T10:03:08.936Z,14.83551
2022-09-26T10:04:18.528Z,14.624023
2022-09-26T10:05:28.231Z,14.593811
2022-09-26T10:06:44.052Z,14.684448
2022-09-26T10:07:46.682Z,14.785156
2022-09-26T10:08:54.457Z,14.805298
2022-09-26T10:10:05.128Z,14.805298
2022-09-26T10:11:14.845Z,14.855652
2022-09-26T10:12:23.568Z,15.016785
2022-09-26T10:13:32.303Z,15.137634
2022-09-26T10:14:42.118Z,15.248413
2022-09-26T10:15:50.899Z,15.439758
2022-09-26T10:17:01.590Z,15.651245
2022-09-26T10:18:26.923Z,15.721741
2022-09-26T10:19:20.965Z,15.792236
2022-09-26T10:20:30.669Z,15.751953
2022-09-26T10:21:38.347Z,15.731812
2022-09-26T10:22:48.047Z,15.681458
2022-09-26T10:23:57.776Z,15.792236
2022-09-26T10:25:06.566Z,16.054077
2022-09-26T10:26:16.272Z,16.305847
2022-09-26T10:27:26.020Z,16.315918
2022-09-26T10:28:35.778Z,16.416626
2022-09-26T10:29:46.506Z,16.759033
2022-09-26T10:30:55.342Z,17.161865
2022-09-26T10:32:05.039Z,17.484131
2022-09-26T10:33:14.723Z,17.59491
2022-09-26T10:34:23.498Z,17.59491
2022-09-26T10:35:33.194Z,17.333069
2022-09-26T10:36:42.944Z,17.161865
2022-09-26T10:37:51.638Z,17.121582
2022-09-26T10:39:01.357Z,17.061157
2022-09-26T10:40:10.042Z,16.577759
2022-09-26T10:41:19.735Z,16.054077
2022-09-26T10:42:32.099Z,15.731812
2022-09-26T10:43:37.174Z,15.399475
2022-09-26T10:44:46.818Z,15.147705
2022-09-26T10:45:56.537Z,14.996643
2022-09-26T10:47:05.204Z,14.95636
2022-09-26T10:48:14.971Z,14.70459
2022-09-26T10:49:24.607Z,14.402466
2022-09-26T10:50:32.315Z,13.868713
2022-09-26T10:51:41.992Z,13.304749
2022-09-26T10:52:50.732Z,12.82135
2022-09-26T10:53:59.606Z,12.599792
2022-09-26T10:55:09.272Z,12.468872
2022-09-26T10:56:17.958Z,12.368164
2022-09-26T10:57:27.890Z,12.277527
2022-09-26T10:58:37.338Z,12.287598
2022-09-26T10:59:46.046Z,12.287598
2022-09-26T11:00:55.783Z,12.267456
2022-09-26T11:02:05.578Z,12.176819
2022-09-26T11:03:14.351Z,12.176819
2022-09-26T11:04:24.210Z,12.237244
2022-09-26T11:05:31.852Z,12.358093
2022-09-26T11:06:41.661Z,12.428589
2022-09-26T11:07:50.331Z,12.368164
2022-09-26T11:08:59.062Z,12.287598
2022-09-26T11:10:08.812Z,12.277527
2022-09-26T11:11:16.550Z,12.267456
2022-09-26T11:12:26.261Z,12.348022
2022-09-26T11:13:36.001Z,12.358093
2022-09-26T11:14:43.717Z,12.398376
2022-09-26T11:15:53.491Z,12.458801
2022-09-26T11:17:02.180Z,12.549438
2022-09-26T11:18:10.883Z,12.619934
2022-09-26T11:19:20.731Z,12.499084
2022-09-26T11:20:30.356Z,12.549438
2022-09-26T11:21:39.012Z,12.670288
2022-09-26T11:22:48.753Z,12.760925
2022-09-26T11:23:56.429Z,12.911987
2022-09-26T11:25:06.213Z,13.032837
2022-09-26T11:26:15.005Z,13.083191
2022-09-26T11:27:23.711Z,13.19397
2022-09-26T11:28:33.480Z,13.334961
2022-09-26T11:29:41.210Z,13.365173
2022-09-26T11:30:49.943Z,13.375244
2022-09-26T11:32:00.463Z,13.415527
2022-09-26T11:33:09.301Z,13.435669
2022-09-26T11:34:19.044Z,13.455811
2022-09-26T11:35:28.760Z,13.486023
2022-09-26T11:36:38.585Z,13.516235
2022-09-26T11:37:48.374Z,13.566589
2022-09-26T11:38:57.128Z,13.536377
2022-09-26T11:40:09.387Z,13.496094
2022-09-26T11:41:15.574Z,13.405457
2022-09-26T11:42:24.314Z,13.496094
2022-09-26T11:43:34.060Z,13.415527
2022-09-26T11:44:42.809Z,13.455811
2022-09-26T11:45:51.524Z,13.516235
2022-09-26T11:47:01.221Z,13.677368
2022-09-26T11:48:10.938Z,13.848572
2022-09-26T11:49:20.660Z,13.94928
2022-09-26T11:50:30.366Z,14.070129
2022-09-26T11:51:39.058Z,14.291687
2022-09-26T11:52:49.442Z,14.352112
2022-09-26T11:53:58.628Z,14.442749
2022-09-26T11:55:06.307Z,14.483032
2022-09-26T11:56:16.205Z,14.875793
2022-09-26T11:57:24.987Z,15.369263
2022-09-26T11:58:33.713Z,15.862732
2022-09-26T11:59:43.499Z,16.386414
2022-09-26T12:00:53.217Z,16.829529
2022-09-26T12:02:02.913Z,17.232361
2022-09-26T12:03:11.819Z,17.494202
2022-09-26T12:04:19.536Z,17.967529
2022-09-26T12:05:29.176Z,18.199158
2022-09-26T12:06:37.883Z,17.564697
2022-09-26T12:07:46.579Z,17.59491
2022-09-26T12:08:56.366Z,17.705688
2022-09-26T12:10:04.051Z,17.866821
2022-09-26T12:11:13.771Z,17.997742
2022-09-26T12:12:22.487Z,17.635193
2022-09-26T12:13:31.178Z,17.60498
2022-09-26T12:14:41.011Z,16.940308
2022-09-26T12:15:48.831Z,16.46698
2022-09-26T12:16:57.504Z,16.275635
2022-09-26T12:18:07.224Z,16.527405
2022-09-26T12:19:16.956Z,17.333069
2022-09-26T12:20:26.635Z,18.148804
2022-09-26T12:21:35.333Z,18.712769
2022-09-26T12:22:44.024Z,19.024963
2022-09-26T12:23:53.724Z,18.773193
2022-09-26T12:25:02.446Z,19.065247
2022-09-26T12:26:11.180Z,19.48822
2022-09-26T12:27:20.876Z,19.145813
2022-09-26T12:28:29.708Z,18.883972
2022-09-26T12:29:39.357Z,18.934326
2022-09-26T12:30:48.127Z,18.400574
2022-09-26T12:31:55.899Z,18.340149
2022-09-26T12:33:05.561Z,17.897034
2022-09-26T12:34:13.325Z,17.514343
2022-09-26T12:35:22.010Z,17.574768
2022-09-26T12:36:31.697Z,17.735901
2022-09-26T12:37:41.537Z,18.148804
2022-09-26T12:38:55.843Z,17.84668
2022-09-26T12:40:00.947Z,17.786255
2022-09-26T12:41:08.668Z,18.128662
2022-09-26T12:42:18.336Z,18.60199
2022-09-26T12:43:26.242Z,18.73291
2022-09-26T12:44:35.274Z,18.652344
2022-09-26T12:45:47.449Z,18.128662
2022-09-26T12:46:55.817Z,17.453918
2022-09-26T12:48:04.492Z,16.829529
2022-09-26T12:49:14.228Z,16.829529
2022-09-26T12:50:21.950Z,17.09137
2022-09-26T12:51:31.766Z,17.756042
2022-09-26T12:52:41.576Z,17.997742
2022-09-26T12:53:50.307Z,18.09845
2022-09-26T12:55:00.191Z,18.189087
2022-09-26T12:56:08.919Z,17.85675
2022-09-26T12:57:16.634Z,17.161865
2022-09-26T12:58:26.308Z,16.97052
2022-09-26T12:59:37.887Z,17.524414
2022-09-26T13:00:43.796Z,18.199158
2022-09-26T13:01:53.594Z,18.773193
2022-09-26T13:03:01.445Z,19.256592
2022-09-26T13:04:11.014Z,19.86084
2022-09-26T13:05:19.718Z,20.344238
2022-09-26T13:06:28.482Z,20.404663
2022-09-26T13:07:38.209Z,20.253601
2022-09-26T13:08:46.900Z,19.135742
2022-09-26T13:09:56.624Z,19.286804
2022-09-26T13:11:06.331Z,19.035034
2022-09-26T13:12:14.160Z,18.471069
2022-09-26T13:13:23.859Z,18.289795
2022-09-26T13:14:33.538Z,18.60199